Balsa 86 — 3EYV6 — position and weather

sailwx.info

Track history (hours):
 
Tides and Currents Weather Stations Pressure Air Temp Water Temp Dewpoint Dewpoint Depression Visibility Wind Speed Wind Dir Waves Ship Positions

Balsa 86

Last reported at 2017-Sep-20 13:51 UTC. Time now 2017-Sep-23 04:11 UTC.
Position N 36°49' W 075°48'.

Length 106 m; draft 6.6 m.

Type: Cargo ship. MMSI: 372592000.

Date/timePositionNaut miles runAvg speedWind from/ knotsBaromVisibWave heightAir tempDewpointWater temp
2017-Sep-20 13:51N 36°49' W 075°48'410.8
2017-Sep-20 13:30N 36°51' W 075°52'510.4
2017-Sep-20 13:00N 36°55' W 075°56'510.0
2017-Sep-20 12:30N 36°57' W 076°02'5 9.8
2017-Sep-20 12:00N 36°59' W 076°08'610.4
2017-Sep-20 11:24N 37°00' W 076°15'4 9.7
2017-Sep-20 10:57N 36°58' W 076°20'1 2.6
2017-Sep-20 10:22N 36°57' W 076°22'0 0.1
2017-Sep-20 09:43N 36°57' W 076°22'0 0.0
2017-Sep-20 09:16N 36°57' W 076°22'0 0.1
2017-Sep-20 08:16N 36°57' W 076°22'0 0.0
2017-Sep-20 07:58N 36°57' W 076°22'0 0.0
2017-Sep-20 07:28N 36°57' W 076°22'0 0.1
2017-Sep-20 06:59N 36°57' W 076°22'3 4.8
2017-Sep-20 06:28N 36°57' W 076°25'21 0.6
2017-Sep-18 15:49N 37°11' W 076°45'5 9.8
2017-Sep-18 15:21N 37°13' W 076°40'3 8.0
2017-Sep-18 14:56N 37°10' W 076°38'14 9.7
2017-Sep-18 13:32N 36°59' W 076°27'110.2
2017-Sep-18 13:29N 36°59' W 076°27'1 1.0
2017-Sep-18 12:53N 36°58' W 076°27'0 0.0
2017-Sep-18 12:26N 36°58' W 076°27'0 0.0
2017-Sep-18 09:11N 36°58' W 076°27'0 0.0
2017-Sep-18 08:47N 36°58' W 076°27'0 0.0
2017-Sep-18 07:44N 36°58' W 076°27'0 0.0
2017-Sep-18 07:29N 36°58' W 076°27'0 0.0
2017-Sep-18 06:59N 36°58' W 076°27'0 0.0
2017-Sep-18 06:29N 36°58' W 076°27'0 0.0
2017-Sep-18 05:59N 36°58' W 076°27'0 0.0
2017-Sep-18 05:26N 36°58' W 076°27'0 0.0
2017-Sep-18 04:59N 36°58' W 076°27'0 0.0
2017-Sep-18 04:29N 36°58' W 076°27'0 0.0
2017-Sep-18 03:56N 36°58' W 076°27'0 0.0
2017-Sep-18 03:08N 36°58' W 076°27'0 0.1
2017-Sep-18 01:59N 36°58' W 076°27'0 0.0
2017-Sep-18 01:29N 36°58' W 076°27'0 0.0
2017-Sep-17 19:17N 36°58' W 076°27'0 0.1
2017-Sep-17 18:59N 36°58' W 076°27'0 0.0
2017-Sep-17 18:29N 36°58' W 076°27'0 0.0
2017-Sep-17 17:56N 36°58' W 076°27'0 0.0
2017-Sep-17 17:29N 36°58' W 076°27'0 0.0
2017-Sep-17 16:56N 36°58' W 076°27'0 0.0
2017-Sep-17 16:17N 36°58' W 076°27'0 0.1
2017-Sep-17 15:59N 36°58' W 076°27'0 0.0
2017-Sep-17 15:29N 36°58' W 076°27'0 0.0
2017-Sep-17 14:29N 36°58' W 076°27'0 0.0
2017-Sep-17 13:47N 36°58' W 076°27'0 0.0
2017-Sep-17 13:23N 36°58' W 076°27'0 0.1
2017-Sep-17 12:59N 36°58' W 076°27'0 0.1
2017-Sep-17 12:26N 36°58' W 076°27'0 0.0
2017-Sep-17 09:53N 36°58' W 076°27'0 0.0
2017-Sep-17 09:20N 36°58' W 076°27'0 0.1
2017-Sep-17 08:11N 36°58' W 076°27'0 0.1
2017-Sep-17 07:59N 36°58' W 076°27'0 0.0
2017-Sep-17 07:29N 36°58' W 076°27'0 0.0
2017-Sep-17 06:56N 36°58' W 076°27'0 0.0
2017-Sep-17 06:26N 36°58' W 076°27'0 0.0
2017-Sep-17 05:59N 36°58' W 076°27'0 0.0
2017-Sep-17 05:29N 36°58' W 076°27'0 0.0
2017-Sep-17 04:59N 36°58' W 076°27'0 0.0
2017-Sep-17 04:29N 36°58' W 076°27'0 0.0
2017-Sep-17 03:59N 36°58' W 076°27'0 0.0
2017-Sep-17 03:29N 36°58' W 076°27'0 0.0
2017-Sep-17 02:59N 36°58' W 076°27'0 0.1
2017-Sep-17 02:02N 36°58' W 076°27'0 0.2
2017-Sep-17 01:56N 36°58' W 076°27'0 0.1
2017-Sep-17 01:29N 36°58' W 076°27'0 0.0
2017-Sep-16 21:29N 36°58' W 076°27'0 0.0
2017-Sep-16 20:47N 36°58' W 076°27'0 0.0
2017-Sep-16 20:29N 36°58' W 076°27'0 0.0
2017-Sep-16 19:59N 36°58' W 076°27'0 0.1
2017-Sep-16 19:05N 36°58' W 076°27'0 0.0
2017-Sep-16 18:47N 36°58' W 076°27'0 0.1
2017-Sep-16 18:29N 36°58' W 076°27'0 0.1
2017-Sep-16 17:59N 36°58' W 076°27'0 0.0
2017-Sep-16 17:29N 36°58' W 076°27'0 0.0
2017-Sep-16 16:59N 36°58' W 076°27'0 0.0
2017-Sep-16 16:29N 36°58' W 076°27'0 0.0
2017-Sep-16 15:59N 36°58' W 076°27'0 0.0
2017-Sep-16 15:29N 36°58' W 076°27'0 0.0
2017-Sep-16 14:59N 36°58' W 076°27'0 0.0
2017-Sep-16 14:29N 36°58' W 076°27'0 0.0
2017-Sep-16 13:56N 36°58' W 076°27'0 0.1
2017-Sep-16 13:26N 36°58' W 076°27'0 0.1
2017-Sep-16 12:53N 36°58' W 076°27'0 0.1
2017-Sep-16 12:14N 36°58' W 076°27'0 0.1
2017-Sep-16 11:59N 36°58' W 076°27'0 0.0
2017-Sep-16 11:26N 36°58' W 076°27'0 0.0
2017-Sep-16 10:59N 36°58' W 076°27'0 0.0
2017-Sep-16 10:29N 36°58' W 076°27'0 0.0
2017-Sep-16 09:59N 36°58' W 076°27'0 0.0
2017-Sep-16 09:23N 36°58' W 076°27'0 0.0
2017-Sep-16 08:50N 36°58' W 076°27'0 0.1
2017-Sep-16 08:26N 36°58' W 076°27'0 0.2
2017-Sep-16 07:56N 36°58' W 076°27'0 0.0
2017-Sep-16 06:28N 36°58' W 076°27'3 4.7
2017-Sep-16 05:50N 36°57' W 076°23'410.8
2017-Sep-16 05:29N 36°59' W 076°19'510.5
2017-Sep-16 05:00N 37°00' W 076°13'611.3
2017-Sep-16 04:30N 36°58' W 076°06'611.1
2017-Sep-16 04:00N 36°57' W 075°59'510.2
2017-Sep-16 03:30N 36°54' W 075°54'612.1
2017-Sep-16 03:00N 36°51' W 075°48'611.7
2017-Sep-16 02:30N 36°49' W 075°40'611.3
2017-Sep-16 02:00N 36°46' W 075°35'1212.5
2017-Sep-16 01:01N 36°36' W 075°25'112.3
2017-Sep-16 00:59N 36°36' W 075°25'  
Track history (hours):
 
Tides and Currents Weather Stations Pressure Air Temp Water Temp Dewpoint Dewpoint Depression Visibility Wind Speed Wind Dir Waves Ship Positions

Balsa 86

Last reported at 2017-Sep-20 13:51 UTC. Time now 2017-Sep-23 04:11 UTC.
Position N 36°49' W 075°48'.

Length 106 m; draft 6.6 m.

Type: Cargo ship. MMSI: 372592000.

Date/timePositionNaut miles runAvg speedWind from/ knotsBaromVisibWave heightAir tempDewpointWater temp
2017-Sep-20 13:51N 36°49' W 075°48'410.8
2017-Sep-20 13:30N 36°51' W 075°52'510.4
2017-Sep-20 13:00N 36°55' W 075°56'510.0
2017-Sep-20 12:30N 36°57' W 076°02'5 9.8
2017-Sep-20 12:00N 36°59' W 076°08'610.4
2017-Sep-20 11:24N 37°00' W 076°15'4 9.7
2017-Sep-20 10:57N 36°58' W 076°20'1 2.6
2017-Sep-20 10:22N 36°57' W 076°22'0 0.1
2017-Sep-20 09:43N 36°57' W 076°22'0 0.0
2017-Sep-20 09:16N 36°57' W 076°22'0 0.1
2017-Sep-20 08:16N 36°57' W 076°22'0 0.0
2017-Sep-20 07:58N 36°57' W 076°22'0 0.0
2017-Sep-20 07:28N 36°57' W 076°22'0 0.1
2017-Sep-20 06:59N 36°57' W 076°22'3 4.8
2017-Sep-20 06:28N 36°57' W 076°25'21 0.6
2017-Sep-18 15:49N 37°11' W 076°45'5 9.8
2017-Sep-18 15:21N 37°13' W 076°40'3 8.0
2017-Sep-18 14:56N 37°10' W 076°38'14 9.7
2017-Sep-18 13:32N 36°59' W 076°27'110.2
2017-Sep-18 13:29N 36°59' W 076°27'1 1.0
2017-Sep-18 12:53N 36°58' W 076°27'0 0.0
2017-Sep-18 12:26N 36°58' W 076°27'0 0.0
2017-Sep-18 09:11N 36°58' W 076°27'0 0.0
2017-Sep-18 08:47N 36°58' W 076°27'0 0.0
2017-Sep-18 07:44N 36°58' W 076°27'0 0.0
2017-Sep-18 07:29N 36°58' W 076°27'0 0.0
2017-Sep-18 06:59N 36°58' W 076°27'0 0.0
2017-Sep-18 06:29N 36°58' W 076°27'0 0.0
2017-Sep-18 05:59N 36°58' W 076°27'0 0.0
2017-Sep-18 05:26N 36°58' W 076°27'0 0.0
2017-Sep-18 04:59N 36°58' W 076°27'0 0.0
2017-Sep-18 04:29N 36°58' W 076°27'0 0.0
2017-Sep-18 03:56N 36°58' W 076°27'0 0.0
2017-Sep-18 03:08N 36°58' W 076°27'0 0.1
2017-Sep-18 01:59N 36°58' W 076°27'0 0.0
2017-Sep-18 01:29N 36°58' W 076°27'0 0.0
2017-Sep-17 19:17N 36°58' W 076°27'0 0.1
2017-Sep-17 18:59N 36°58' W 076°27'0 0.0
2017-Sep-17 18:29N 36°58' W 076°27'0 0.0
2017-Sep-17 17:56N 36°58' W 076°27'0 0.0
2017-Sep-17 17:29N 36°58' W 076°27'0 0.0
2017-Sep-17 16:56N 36°58' W 076°27'0 0.0
2017-Sep-17 16:17N 36°58' W 076°27'0 0.1
2017-Sep-17 15:59N 36°58' W 076°27'0 0.0
2017-Sep-17 15:29N 36°58' W 076°27'0 0.0
2017-Sep-17 14:29N 36°58' W 076°27'0 0.0
2017-Sep-17 13:47N 36°58' W 076°27'0 0.0
2017-Sep-17 13:23N 36°58' W 076°27'0 0.1
2017-Sep-17 12:59N 36°58' W 076°27'0 0.1
2017-Sep-17 12:26N 36°58' W 076°27'0 0.0
2017-Sep-17 09:53N 36°58' W 076°27'0 0.0
2017-Sep-17 09:20N 36°58' W 076°27'0 0.1
2017-Sep-17 08:11N 36°58' W 076°27'0 0.1
2017-Sep-17 07:59N 36°58' W 076°27'0 0.0
2017-Sep-17 07:29N 36°58' W 076°27'0 0.0
2017-Sep-17 06:56N 36°58' W 076°27'0 0.0
2017-Sep-17 06:26N 36°58' W 076°27'0 0.0
2017-Sep-17 05:59N 36°58' W 076°27'0 0.0
2017-Sep-17 05:29N 36°58' W 076°27'0 0.0
2017-Sep-17 04:59N 36°58' W 076°27'0 0.0
2017-Sep-17 04:29N 36°58' W 076°27'0 0.0
2017-Sep-17 03:59N 36°58' W 076°27'0 0.0
2017-Sep-17 03:29N 36°58' W 076°27'0 0.0
2017-Sep-17 02:59N 36°58' W 076°27'0 0.1
2017-Sep-17 02:02N 36°58' W 076°27'0 0.2
2017-Sep-17 01:56N 36°58' W 076°27'0 0.1
2017-Sep-17 01:29N 36°58' W 076°27'0 0.0
2017-Sep-16 21:29N 36°58' W 076°27'0 0.0
2017-Sep-16 20:47N 36°58' W 076°27'0 0.0
2017-Sep-16 20:29N 36°58' W 076°27'0 0.0
2017-Sep-16 19:59N 36°58' W 076°27'0 0.1
2017-Sep-16 19:05N 36°58' W 076°27'0 0.0
2017-Sep-16 18:47N 36°58' W 076°27'0 0.1
2017-Sep-16 18:29N 36°58' W 076°27'0 0.1
2017-Sep-16 17:59N 36°58' W 076°27'0 0.0
2017-Sep-16 17:29N 36°58' W 076°27'0 0.0
2017-Sep-16 16:59N 36°58' W 076°27'0 0.0
2017-Sep-16 16:29N 36°58' W 076°27'0 0.0
2017-Sep-16 15:59N 36°58' W 076°27'0 0.0
2017-Sep-16 15:29N 36°58' W 076°27'0 0.0
2017-Sep-16 14:59N 36°58' W 076°27'0 0.0
2017-Sep-16 14:29N 36°58' W 076°27'0 0.0
2017-Sep-16 13:56N 36°58' W 076°27'0 0.1
2017-Sep-16 13:26N 36°58' W 076°27'0 0.1
2017-Sep-16 12:53N 36°58' W 076°27'0 0.1
2017-Sep-16 12:14N 36°58' W 076°27'0 0.1
2017-Sep-16 11:59N 36°58' W 076°27'0 0.0
2017-Sep-16 11:26N 36°58' W 076°27'0 0.0
2017-Sep-16 10:59N 36°58' W 076°27'0 0.0
2017-Sep-16 10:29N 36°58' W 076°27'0 0.0
2017-Sep-16 09:59N 36°58' W 076°27'0 0.0
2017-Sep-16 09:23N 36°58' W 076°27'0 0.0
2017-Sep-16 08:50N 36°58' W 076°27'0 0.1
2017-Sep-16 08:26N 36°58' W 076°27'0 0.2
2017-Sep-16 07:56N 36°58' W 076°27'0 0.0
2017-Sep-16 06:28N 36°58' W 076°27'3 4.7
2017-Sep-16 05:50N 36°57' W 076°23'410.8
2017-Sep-16 05:29N 36°59' W 076°19'510.5
2017-Sep-16 05:00N 37°00' W 076°13'611.3
2017-Sep-16 04:30N 36°58' W 076°06'611.1
2017-Sep-16 04:00N 36°57' W 075°59'510.2
2017-Sep-16 03:30N 36°54' W 075°54'612.1
2017-Sep-16 03:00N 36°51' W 075°48'611.7
2017-Sep-16 02:30N 36°49' W 075°40'611.3
2017-Sep-16 02:00N 36°46' W 075°35'1212.5
2017-Sep-16 01:01N 36°36' W 075°25'112.3
2017-Sep-16 00:59N 36°36' W 075°25'  

Dump ship's entire track history